createdAt,value
2022-08-19T00:01:43.460Z,22.98
2022-08-19T00:04:13.372Z,22.97
2022-08-19T00:06:43.747Z,22.95
2022-08-19T00:09:13.816Z,22.98
2022-08-19T00:11:41.860Z,22.98
2022-08-19T00:14:10.764Z,22.96
2022-08-19T00:16:39.667Z,23.00
2022-08-19T00:19:08.173Z,23.00
2022-08-19T00:21:37.653Z,23.02
2022-08-19T00:24:07.699Z,23.00
2022-08-19T00:26:35.789Z,22.98
2022-08-19T00:29:04.250Z,22.95
2022-08-19T00:31:32.484Z,22.93
2022-08-19T00:34:00.547Z,22.92
2022-08-19T00:36:29.570Z,22.87
2022-08-19T00:38:57.606Z,22.82
2022-08-19T00:41:27.118Z,22.84
2022-08-19T00:44:05.672Z,22.86
2022-08-19T00:46:34.584Z,22.86
2022-08-19T00:49:03.393Z,22.84
2022-08-19T00:51:33.469Z,22.83
2022-08-19T00:54:01.773Z,22.83
2022-08-19T00:56:32.743Z,22.79
2022-08-19T00:59:00.813Z,22.77
2022-08-19T01:01:28.944Z,22.74
2022-08-19T01:03:58.766Z,22.66
2022-08-19T01:06:27.040Z,22.60
2022-08-19T01:08:55.935Z,22.53
2022-08-19T01:11:23.984Z,22.54
2022-08-19T01:13:53.650Z,22.51
2022-08-19T01:16:22.944Z,22.52
2022-08-19T01:18:51.321Z,22.47
2022-08-19T01:21:20.770Z,22.49
2022-08-19T01:23:50.196Z,22.50
2022-08-19T01:26:19.557Z,22.48
2022-08-19T01:28:48.447Z,22.43
2022-08-19T01:31:26.489Z,22.44
2022-08-19T01:33:57.539Z,22.38
2022-08-19T01:36:27.463Z,22.36
2022-08-19T01:38:57.327Z,22.31
2022-08-19T01:41:25.368Z,22.29
2022-08-19T01:44:03.799Z,22.23
2022-08-19T01:46:41.507Z,22.26
2022-08-19T01:49:09.645Z,22.26
2022-08-19T01:51:40.278Z,22.27
2022-08-19T01:54:10.233Z,22.29
2022-08-19T01:56:39.265Z,22.31
2022-08-19T01:59:09.297Z,22.33
2022-08-19T02:01:37.348Z,22.36
2022-08-19T02:04:06.063Z,22.36
2022-08-19T02:06:34.215Z,22.39
2022-08-19T02:09:02.288Z,22.41
2022-08-19T02:11:34.518Z,22.43
2022-08-19T02:14:03.026Z,22.46
2022-08-19T02:16:31.427Z,22.51
2022-08-19T02:19:01.582Z,22.54
2022-08-19T02:21:29.897Z,22.54
2022-08-19T02:23:58.038Z,22.54
2022-08-19T02:26:27.473Z,22.52
2022-08-19T02:28:57.032Z,22.55
2022-08-19T02:31:26.840Z,22.59
2022-08-19T02:33:56.682Z,22.58
2022-08-19T02:36:25.356Z,22.56
2022-08-19T02:38:54.844Z,22.52
2022-08-19T02:41:26.883Z,22.45
2022-08-19T02:44:26.327Z,22.38
2022-08-19T02:46:47.296Z,22.33
2022-08-19T02:49:17.460Z,22.30
2022-08-19T02:51:46.692Z,22.29
2022-08-19T02:54:14.803Z,22.26
2022-08-19T02:56:43.069Z,22.24
2022-08-19T02:59:12.870Z,22.24
2022-08-19T03:01:42.478Z,22.24
2022-08-19T03:04:12.927Z,22.23
2022-08-19T03:06:41.317Z,22.20
2022-08-19T03:09:09.384Z,22.12
2022-08-19T03:11:37.396Z,22.03
2022-08-19T03:14:05.656Z,22.01
2022-08-19T03:16:36.241Z,21.96
2022-08-19T03:19:04.374Z,21.91
2022-08-19T03:21:34.046Z,21.89
2022-08-19T03:24:03.348Z,21.87
2022-08-19T03:26:31.471Z,21.90
2022-08-19T03:28:59.985Z,21.89
2022-08-19T03:31:43.731Z,21.88
2022-08-19T03:34:20.153Z,21.87
2022-08-19T03:36:48.216Z,21.87
2022-08-19T03:39:16.303Z,21.83
2022-08-19T03:41:48.135Z,21.76
2022-08-19T03:44:18.352Z,21.68
2022-08-19T03:46:48.593Z,21.63
2022-08-19T03:49:18.303Z,21.60
2022-08-19T03:51:46.891Z,21.57
2022-08-19T03:54:15.816Z,21.55
2022-08-19T03:56:44.489Z,21.51
2022-08-19T03:59:14.449Z,21.50
2022-08-19T04:01:42.549Z,21.48
2022-08-19T04:04:12.071Z,21.51
2022-08-19T04:06:40.588Z,21.49
2022-08-19T04:09:12.450Z,21.45
2022-08-19T04:11:43.443Z,21.41
2022-08-19T04:14:12.554Z,21.36
2022-08-19T04:16:41.852Z,21.29
2022-08-19T04:19:11.306Z,21.22
2022-08-19T04:21:39.353Z,21.17
2022-08-19T04:24:08.098Z,21.11
2022-08-19T04:26:37.650Z,21.04
2022-08-19T04:29:12.508Z,20.95
2022-08-19T04:31:41.924Z,20.86
2022-08-19T04:34:12.599Z,20.78
2022-08-19T04:36:42.319Z,20.67
2022-08-19T04:39:11.687Z,20.58
2022-08-19T04:41:57.013Z,20.51
2022-08-19T04:44:25.074Z,20.39
2022-08-19T04:46:53.244Z,20.32
2022-08-19T04:49:23.921Z,20.26
2022-08-19T04:51:54.916Z,20.21
2022-08-19T04:54:37.291Z,20.16
2022-08-19T04:57:07.659Z,20.08
2022-08-19T04:59:36.155Z,20.02
2022-08-19T05:02:04.284Z,19.95
2022-08-19T05:04:34.671Z,19.91
2022-08-19T05:07:02.823Z,19.86
2022-08-19T05:09:36.197Z,19.80
2022-08-19T05:12:20.135Z,19.72
2022-08-19T05:14:48.922Z,19.68
2022-08-19T05:17:27.731Z,19.62
2022-08-19T05:20:15.224Z,19.56
2022-08-19T05:22:43.388Z,19.49
2022-08-19T05:25:14.258Z,19.42
2022-08-19T05:27:42.561Z,19.40
2022-08-19T05:30:11.484Z,19.39
2022-08-19T05:32:39.553Z,19.38
2022-08-19T05:35:10.497Z,19.33
2022-08-19T05:37:41.202Z,19.33
2022-08-19T05:40:10.763Z,19.32
2022-08-19T05:42:38.852Z,19.30
2022-08-19T05:45:08.016Z,19.30
2022-08-19T05:47:36.599Z,19.27
2022-08-19T05:50:11.956Z,19.25
2022-08-19T05:52:43.823Z,19.24
2022-08-19T05:55:18.063Z,19.23
2022-08-19T05:57:46.148Z,19.23
2022-08-19T06:00:14.928Z,19.23
2022-08-19T06:02:43.244Z,19.25
2022-08-19T06:05:13.186Z,19.24
2022-08-19T06:07:41.534Z,19.21
2022-08-19T06:10:11.255Z,19.20
2022-08-19T06:12:39.390Z,19.23
2022-08-19T06:15:09.535Z,19.27
2022-08-19T06:17:37.647Z,19.31
2022-08-19T06:20:06.149Z,19.31
2022-08-19T06:22:39.541Z,19.32
2022-08-19T06:25:10.103Z,19.37
2022-08-19T06:27:48.301Z,19.40
2022-08-19T06:30:26.528Z,19.41
2022-08-19T06:32:54.563Z,19.45
2022-08-19T06:35:22.761Z,19.47
2022-08-19T06:37:53.566Z,19.53
2022-08-19T06:40:22.151Z,19.60
2022-08-19T06:42:55.088Z,19.70
2022-08-19T06:45:25.009Z,19.81
2022-08-19T06:48:02.134Z,19.93
2022-08-19T06:50:31.400Z,20.08
2022-08-19T06:53:03.572Z,20.23
2022-08-19T06:55:33.262Z,20.40
2022-08-19T06:58:04.689Z,20.57
2022-08-19T07:00:33.954Z,20.72
2022-08-19T07:03:05.959Z,20.86
2022-08-19T07:05:40.984Z,21.00
2022-08-19T07:08:15.588Z,21.15
2022-08-19T07:10:46.155Z,21.31
2022-08-19T07:13:14.655Z,21.47
2022-08-19T07:15:42.880Z,21.56
2022-08-19T07:18:11.837Z,21.67
2022-08-19T07:20:42.076Z,21.78
2022-08-19T07:23:16.039Z,21.83
2022-08-19T07:25:51.370Z,21.87
2022-08-19T07:28:24.391Z,21.90
2022-08-19T07:30:53.426Z,21.90
2022-08-19T07:33:21.709Z,21.94
2022-08-19T07:35:51.257Z,21.99
2022-08-19T07:38:19.457Z,22.06
2022-08-19T07:40:49.024Z,22.16
2022-08-19T07:43:19.409Z,22.24
2022-08-19T07:45:48.465Z,22.31
2022-08-19T07:48:17.292Z,22.41
2022-08-19T07:50:45.730Z,22.46
2022-08-19T07:53:14.184Z,22.49
2022-08-19T07:55:43.805Z,22.48
2022-08-19T07:58:14.802Z,22.47
2022-08-19T08:00:43.194Z,22.51
2022-08-19T08:03:11.527Z,22.54
2022-08-19T08:05:57.236Z,22.57
2022-08-19T08:08:44.101Z,22.60
2022-08-19T08:11:16.682Z,22.65
2022-08-19T08:14:00.691Z,22.67
2022-08-19T08:16:33.058Z,22.64
2022-08-19T08:19:07.256Z,22.65
2022-08-19T08:21:49.032Z,22.71
2022-08-19T08:24:17.134Z,22.83
2022-08-19T08:26:57.561Z,22.93
2022-08-19T08:29:34.911Z,22.99
2022-08-19T08:32:14.894Z,23.06
2022-08-19T08:34:43.438Z,23.09
2022-08-19T08:37:11.706Z,23.09
2022-08-19T08:39:43.328Z,23.11
2022-08-19T08:42:17.639Z,23.18
2022-08-19T08:44:51.131Z,23.31
2022-08-19T08:47:21.159Z,23.31
2022-08-19T08:49:52.937Z,23.38
2022-08-19T08:52:22.546Z,23.47
2022-08-19T08:54:55.032Z,23.53
2022-08-19T08:57:30.559Z,23.48
2022-08-19T09:00:15.567Z,23.36
2022-08-19T09:02:44.526Z,23.30
2022-08-19T09:05:16.741Z,23.36
2022-08-19T09:07:49.615Z,23.39
2022-08-19T09:10:26.713Z,23.43
2022-08-19T09:12:58.681Z,23.55
2022-08-19T09:15:33.592Z,23.56
2022-08-19T09:18:07.515Z,23.58
2022-08-19T09:20:36.082Z,23.65
2022-08-19T09:23:10.565Z,23.81
2022-08-19T09:25:41.199Z,24.01
2022-08-19T09:28:15.224Z,24.23
2022-08-19T09:30:53.098Z,24.33
2022-08-19T09:33:25.189Z,24.29
2022-08-19T09:35:54.002Z,24.24
2022-08-19T09:38:23.558Z,24.22
2022-08-19T09:40:54.825Z,24.33
2022-08-19T09:43:32.923Z,24.42
2022-08-19T09:46:16.875Z,24.39
2022-08-19T09:48:49.390Z,24.27
2022-08-19T09:51:18.930Z,24.26
2022-08-19T09:53:51.541Z,24.20
2022-08-19T09:56:22.036Z,24.25
2022-08-19T09:58:52.076Z,24.41
2022-08-19T10:01:25.064Z,24.63
2022-08-19T10:03:54.474Z,24.71
2022-08-19T10:06:44.121Z,24.65
2022-08-19T10:09:13.710Z,24.55
2022-08-19T10:11:46.983Z,24.55
2022-08-19T10:14:24.629Z,24.44
2022-08-19T10:16:55.174Z,24.19
2022-08-19T10:19:26.310Z,24.26
2022-08-19T10:22:00.107Z,24.41
2022-08-19T10:24:29.261Z,24.54
2022-08-19T10:27:11.631Z,24.62
2022-08-19T10:29:46.507Z,24.73
2022-08-19T10:32:16.594Z,24.78
2022-08-19T10:34:48.408Z,24.80
2022-08-19T10:37:23.796Z,24.83
2022-08-19T10:39:57.503Z,25.02
2022-08-19T10:42:27.103Z,25.14
2022-08-19T10:44:58.132Z,25.21
2022-08-19T10:47:31.449Z,25.33
2022-08-19T10:50:17.632Z,25.45
2022-08-19T10:52:51.646Z,25.47
2022-08-19T10:55:39.223Z,25.66
2022-08-19T10:58:13.248Z,25.90
2022-08-19T11:00:42.551Z,25.92
2022-08-19T11:03:17.082Z,25.67
2022-08-19T11:05:45.402Z,25.59
2022-08-19T11:08:22.114Z,25.46
2022-08-19T11:10:52.617Z,24.73
2022-08-19T11:13:21.112Z,24.22
2022-08-19T11:15:49.560Z,23.94
2022-08-19T11:18:20.173Z,23.80
2022-08-19T11:20:50.169Z,23.84
2022-08-19T11:23:20.960Z,23.86
2022-08-19T11:25:49.430Z,23.97
2022-08-19T11:28:17.564Z,24.11
2022-08-19T11:30:46.399Z,24.37
2022-08-19T11:33:14.890Z,24.65
2022-08-19T11:35:46.375Z,24.80
2022-08-19T11:38:15.623Z,24.86
2022-08-19T11:40:44.397Z,24.95
2022-08-19T11:43:16.033Z,25.23
2022-08-19T11:45:44.254Z,25.44
2022-08-19T11:48:17.740Z,25.55
2022-08-19T11:50:47.559Z,25.82
2022-08-19T11:53:19.126Z,25.99
2022-08-19T11:55:49.168Z,26.18
2022-08-19T11:58:21.558Z,26.20
2022-08-19T12:00:50.088Z,26.40
2022-08-19T12:03:20.530Z,26.34
2022-08-19T12:05:50.844Z,26.40
2022-08-19T12:08:19.369Z,26.53
2022-08-19T12:10:47.639Z,26.53
2022-08-19T12:13:19.574Z,26.74
2022-08-19T12:15:55.920Z,26.80
2022-08-19T12:18:25.650Z,26.95
2022-08-19T12:20:56.337Z,27.04
2022-08-19T12:23:24.574Z,26.81
2022-08-19T12:25:52.883Z,27.14
2022-08-19T12:28:21.402Z,27.10
2022-08-19T12:30:52.454Z,26.95
2022-08-19T12:33:24.596Z,26.60
2022-08-19T12:35:54.181Z,26.41
2022-08-19T12:38:25.339Z,26.35
2022-08-19T12:41:00.314Z,26.15
2022-08-19T12:43:30.654Z,25.94
2022-08-19T12:45:58.888Z,25.69
2022-08-19T12:48:34.593Z,25.49
2022-08-19T12:51:08.297Z,25.34
2022-08-19T12:53:39.272Z,25.22
2022-08-19T12:56:12.256Z,25.39
2022-08-19T12:58:48.888Z,25.59
2022-08-19T13:01:20.426Z,25.72
2022-08-19T13:03:53.242Z,25.70
2022-08-19T13:06:22.928Z,25.50
2022-08-19T13:08:51.354Z,25.71
2022-08-19T13:11:21.246Z,25.96
2022-08-19T13:13:50.643Z,25.98
2022-08-19T13:16:23.185Z,25.98
2022-08-19T13:18:52.895Z,25.88
2022-08-19T13:21:24.380Z,25.92
2022-08-19T13:23:54.134Z,25.80
2022-08-19T13:26:24.185Z,25.80
2022-08-19T13:29:09.617Z,25.65
2022-08-19T13:31:59.411Z,25.82
2022-08-19T13:34:29.819Z,26.10
2022-08-19T13:37:00.929Z,26.18
2022-08-19T13:39:29.289Z,26.22
2022-08-19T13:41:59.364Z,26.34
2022-08-19T13:44:27.551Z,26.56
2022-08-19T13:46:57.797Z,26.31
2022-08-19T13:49:26.443Z,26.53
2022-08-19T13:51:58.147Z,26.54
2022-08-19T13:54:30.452Z,26.37
2022-08-19T13:56:59.174Z,26.41
2022-08-19T13:59:29.045Z,26.50
2022-08-19T14:02:02.332Z,26.59
2022-08-19T14:04:30.681Z,26.85
2022-08-19T14:06:59.123Z,26.99
2022-08-19T14:09:29.307Z,27.03
2022-08-19T14:11:59.015Z,27.18
2022-08-19T14:14:27.214Z,27.49
2022-08-19T14:16:55.307Z,27.80
2022-08-19T14:19:23.408Z,27.66
2022-08-19T14:21:52.183Z,28.13
2022-08-19T14:24:20.904Z,28.23
2022-08-19T14:26:50.800Z,27.68
2022-08-19T14:29:19.608Z,27.58
2022-08-19T14:31:48.298Z,27.63
2022-08-19T14:34:16.450Z,27.67
2022-08-19T14:36:46.110Z,27.84
2022-08-19T14:39:14.280Z,27.81
2022-08-19T14:41:42.983Z,27.53
2022-08-19T14:44:13.507Z,27.45
2022-08-19T14:46:41.661Z,27.46
2022-08-19T14:49:31.989Z,27.75
2022-08-19T14:52:04.736Z,27.49
2022-08-19T14:54:34.275Z,27.65
2022-08-19T14:57:02.495Z,27.58
2022-08-19T14:59:32.340Z,27.11
2022-08-19T15:02:33.329Z,27.61
2022-08-19T15:04:57.964Z,27.59
2022-08-19T15:07:29.638Z,27.08
2022-08-19T15:09:57.874Z,27.47
2022-08-19T15:12:26.052Z,27.77
2022-08-19T15:14:56.849Z,27.68
2022-08-19T15:17:43.762Z,27.96
2022-08-19T15:20:15.283Z,27.75
2022-08-19T15:22:43.544Z,27.93
2022-08-19T15:25:12.869Z,28.06
2022-08-19T15:27:42.860Z,28.16
2022-08-19T15:30:13.601Z,28.06
2022-08-19T15:32:45.156Z,27.94
2022-08-19T15:35:15.636Z,27.78
2022-08-19T15:37:46.885Z,27.70
2022-08-19T15:40:15.192Z,27.72
2022-08-19T15:42:43.584Z,27.50
2022-08-19T15:45:13.645Z,27.16
2022-08-19T15:47:43.779Z,26.77
2022-08-19T15:50:13.352Z,26.39
2022-08-19T15:52:49.515Z,26.22
2022-08-19T15:55:32.133Z,26.12
2022-08-19T15:58:20.641Z,25.95
2022-08-19T16:01:16.280Z,25.67
2022-08-19T16:04:03.466Z,25.59
2022-08-19T16:06:31.882Z,25.53
2022-08-19T16:09:01.957Z,25.41
2022-08-19T16:11:39.282Z,25.21
2022-08-19T16:14:09.611Z,25.04
2022-08-19T16:16:39.568Z,24.91
2022-08-19T16:19:10.234Z,24.78
2022-08-19T16:21:41.566Z,24.59
2022-08-19T16:24:12.079Z,24.52
2022-08-19T16:26:41.474Z,24.21
2022-08-19T16:29:13.123Z,23.81
2022-08-19T16:31:46.166Z,23.60
2022-08-19T16:34:14.492Z,23.52
2022-08-19T16:36:43.584Z,23.52
2022-08-19T16:39:11.762Z,23.68
2022-08-19T16:41:40.057Z,23.96
2022-08-19T16:44:08.700Z,24.22
2022-08-19T16:46:37.235Z,24.56
2022-08-19T16:49:06.828Z,24.87
2022-08-19T16:51:34.941Z,25.15
2022-08-19T16:54:03.501Z,25.32
2022-08-19T16:56:31.594Z,25.29
2022-08-19T16:58:59.786Z,25.26
2022-08-19T17:01:28.185Z,25.91
2022-08-19T17:03:58.796Z,26.18
2022-08-19T17:06:29.841Z,26.53
2022-08-19T17:08:59.282Z,26.81
2022-08-19T17:11:27.902Z,27.22
2022-08-19T17:13:56.812Z,27.35
2022-08-19T17:16:26.490Z,27.37
2022-08-19T17:18:54.662Z,27.47
2022-08-19T17:21:24.128Z,27.51
2022-08-19T17:23:54.462Z,27.55
2022-08-19T17:26:22.654Z,27.90
2022-08-19T17:28:53.564Z,27.68
2022-08-19T17:31:23.141Z,27.52
2022-08-19T17:33:51.483Z,27.29
2022-08-19T17:36:21.743Z,26.43
2022-08-19T17:38:49.934Z,25.85
2022-08-19T17:41:19.621Z,25.47
2022-08-19T17:43:47.668Z,25.33
2022-08-19T17:46:18.717Z,25.18
2022-08-19T17:48:51.944Z,24.88
2022-08-19T17:51:22.533Z,24.60
2022-08-19T17:53:51.717Z,24.43
2022-08-19T17:56:21.175Z,24.24
2022-08-19T17:58:54.422Z,23.90
2022-08-19T18:01:44.034Z,23.62
2022-08-19T18:04:18.887Z,23.30
2022-08-19T18:06:53.688Z,23.31
2022-08-19T18:09:24.417Z,23.22
2022-08-19T18:11:55.074Z,23.17
2022-08-19T18:14:28.130Z,23.18
2022-08-19T18:17:00.628Z,23.07
2022-08-19T18:19:34.207Z,22.99
2022-08-19T18:22:11.819Z,22.98
2022-08-19T18:24:40.429Z,22.97
2022-08-19T18:27:10.287Z,22.94
2022-08-19T18:29:40.125Z,22.96
2022-08-19T18:32:12.690Z,22.94
2022-08-19T18:34:41.673Z,22.94
2022-08-19T18:37:09.824Z,22.95
2022-08-19T18:39:55.517Z,22.93
2022-08-19T18:42:42.729Z,22.92
2022-08-19T18:45:28.559Z,22.90
2022-08-19T18:48:26.504Z,22.92
2022-08-19T18:50:57.571Z,23.02
2022-08-19T18:53:25.927Z,23.09
2022-08-19T18:55:55.423Z,23.15
2022-08-19T18:58:26.716Z,23.14
2022-08-19T19:00:57.431Z,23.11
2022-08-19T19:03:26.697Z,23.12
2022-08-19T19:05:54.780Z,23.15
2022-08-19T19:08:26.742Z,23.21
2022-08-19T19:10:58.988Z,23.27
2022-08-19T19:13:29.739Z,23.29
2022-08-19T19:15:58.029Z,23.31
2022-08-19T19:18:26.117Z,23.30
2022-08-19T19:20:54.270Z,23.35
2022-08-19T19:23:22.521Z,23.37
2022-08-19T19:25:51.809Z,23.31
2022-08-19T19:28:25.410Z,23.28
2022-08-19T19:30:57.661Z,23.23
2022-08-19T19:33:25.852Z,23.20
2022-08-19T19:35:54.025Z,23.16
2022-08-19T19:38:22.076Z,23.10
2022-08-19T19:40:50.177Z,23.06
2022-08-19T19:43:18.386Z,23.02
2022-08-19T19:45:48.258Z,22.95
2022-08-19T19:48:17.695Z,22.89
2022-08-19T19:50:45.916Z,22.84
2022-08-19T19:53:22.317Z,22.81
2022-08-19T19:55:51.595Z,22.75
2022-08-19T19:58:21.279Z,22.74
2022-08-19T20:00:57.639Z,22.69
2022-08-19T20:03:27.277Z,22.67
2022-08-19T20:05:58.231Z,22.61
2022-08-19T20:08:44.040Z,22.63
2022-08-19T20:11:13.009Z,22.59
2022-08-19T20:13:41.444Z,22.63
2022-08-19T20:16:09.531Z,22.65
2022-08-19T20:18:38.958Z,22.72
2022-08-19T20:21:07.368Z,22.77
2022-08-19T20:23:35.796Z,22.79
2022-08-19T20:26:04.091Z,22.82
2022-08-19T20:28:36.540Z,22.86
2022-08-19T20:31:05.397Z,22.88
2022-08-19T20:33:33.387Z,22.91
2022-08-19T20:36:03.095Z,22.90
2022-08-19T20:38:34.408Z,22.91
2022-08-19T20:41:02.514Z,22.91
2022-08-19T20:43:30.569Z,22.89
2022-08-19T20:45:58.668Z,22.89
2022-08-19T20:48:26.713Z,22.86
2022-08-19T20:50:57.328Z,22.88
2022-08-19T20:53:27.325Z,22.86
2022-08-19T20:55:59.910Z,22.89
2022-08-19T20:58:28.333Z,22.96
2022-08-19T21:00:59.566Z,23.02
2022-08-19T21:03:29.803Z,23.01
2022-08-19T21:05:58.107Z,23.00
2022-08-19T21:08:28.073Z,22.98
2022-08-19T21:10:57.035Z,22.91
2022-08-19T21:13:25.184Z,22.88
2022-08-19T21:15:53.289Z,22.89
2022-08-19T21:18:22.118Z,22.87
2022-08-19T21:20:50.270Z,22.84
2022-08-19T21:23:19.437Z,22.80
2022-08-19T21:25:54.169Z,22.75
2022-08-19T21:28:34.362Z,22.76
2022-08-19T21:31:05.374Z,22.74
2022-08-19T21:33:33.478Z,22.75
2022-08-19T21:36:01.551Z,22.72
2022-08-19T21:38:29.602Z,22.75
2022-08-19T21:40:59.063Z,22.74
2022-08-19T21:43:27.160Z,22.78
2022-08-19T21:45:55.212Z,22.78
2022-08-19T21:48:23.332Z,22.73
2022-08-19T21:50:51.874Z,22.71
2022-08-19T21:53:22.718Z,22.70
2022-08-19T21:55:53.389Z,22.69
2022-08-19T21:58:29.967Z,22.66
2022-08-19T22:00:59.614Z,22.66
2022-08-19T22:03:27.775Z,22.70
2022-08-19T22:05:55.847Z,22.74
2022-08-19T22:08:23.882Z,22.77
2022-08-19T22:10:52.455Z,22.77
2022-08-19T22:13:20.770Z,22.75
2022-08-19T22:15:51.959Z,22.79
2022-08-19T22:18:20.093Z,22.82
2022-08-19T22:20:48.892Z,22.81
2022-08-19T22:23:16.912Z,22.80
2022-08-19T22:25:46.166Z,22.81
2022-08-19T22:28:15.130Z,22.81
2022-08-19T22:30:51.102Z,22.78
2022-08-19T22:33:21.243Z,22.73
2022-08-19T22:35:49.737Z,22.68
2022-08-19T22:38:17.806Z,22.68
2022-08-19T22:40:47.441Z,22.66
2022-08-19T22:43:16.744Z,22.68
2022-08-19T22:45:44.993Z,22.70
2022-08-19T22:48:14.552Z,22.74
2022-08-19T22:51:04.869Z,22.70
2022-08-19T22:53:32.346Z,22.69
2022-08-19T22:56:00.374Z,22.66
2022-08-19T22:58:28.902Z,22.68
2022-08-19T23:00:58.193Z,22.64
2022-08-19T23:03:26.405Z,22.61
2022-08-19T23:05:56.752Z,22.57
2022-08-19T23:08:25.235Z,22.62
2022-08-19T23:10:53.219Z,22.62
2022-08-19T23:13:21.315Z,22.64
2022-08-19T23:15:49.404Z,22.61
2022-08-19T23:18:17.476Z,22.58
2022-08-19T23:20:45.805Z,22.57
2022-08-19T23:23:18.674Z,22.55
2022-08-19T23:25:47.112Z,22.51
2022-08-19T23:28:32.730Z,22.45
2022-08-19T23:31:00.845Z,22.29
2022-08-19T23:33:44.376Z,22.16
2022-08-19T23:36:18.552Z,22.02
2022-08-19T23:38:48.894Z,21.93
2022-08-19T23:41:17.865Z,21.88
2022-08-19T23:43:45.955Z,21.84
2022-08-19T23:46:27.890Z,21.80
2022-08-19T23:48:56.899Z,21.79
2022-08-19T23:51:26.509Z,21.78
2022-08-19T23:53:55.969Z,21.79
2022-08-19T23:56:24.028Z,21.85
2022-08-19T23:58:52.043Z,21.85
